sensor_id;sensor_type;location;lat;lon;timestamp;P1;durP1;ratioP1;P2;durP2;ratioP2
51618;SDS011;38518;53.164;5.430;2022-07-29T00:00:05;2.75;;;1.50;;
51618;SDS011;38518;53.164;5.430;2022-07-29T00:02:32;1.63;;;1.30;;
51618;SDS011;38518;53.164;5.430;2022-07-29T00:04:58;2.45;;;1.25;;
51618;SDS011;38518;53.164;5.430;2022-07-29T00:07:24;2.03;;;1.25;;
51618;SDS011;38518;53.164;5.430;2022-07-29T00:09:50;1.55;;;1.20;;
51618;SDS011;38518;53.164;5.430;2022-07-29T00:12:16;2.58;;;1.52;;
51618;SDS011;38518;53.164;5.430;2022-07-29T00:14:42;4.90;;;1.70;;
51618;SDS011;38518;53.164;5.430;2022-07-29T00:17:08;2.40;;;1.38;;
51618;SDS011;38518;53.164;5.430;2022-07-29T00:19:34;1.70;;;1.15;;
51618;SDS011;38518;53.164;5.430;2022-07-29T00:22:00;2.60;;;1.40;;
51618;SDS011;38518;53.164;5.430;2022-07-29T00:24:26;5.55;;;1.50;;
51618;SDS011;38518;53.164;5.430;2022-07-29T00:26:52;2.17;;;1.15;;
51618;SDS011;38518;53.164;5.430;2022-07-29T00:29:18;3.35;;;1.40;;
51618;SDS011;38518;53.164;5.430;2022-07-29T00:31:44;3.35;;;1.83;;
51618;SDS011;38518;53.164;5.430;2022-07-29T00:34:10;1.85;;;1.27;;
51618;SDS011;38518;53.164;5.430;2022-07-29T00:36:56;2.53;;;1.20;;
51618;SDS011;38518;53.164;5.430;2022-07-29T00:39:22;3.28;;;1.35;;
51618;SDS011;38518;53.164;5.430;2022-07-29T00:41:48;2.60;;;1.30;;
51618;SDS011;38518;53.164;5.430;2022-07-29T00:44:14;2.60;;;1.65;;
51618;SDS011;38518;53.164;5.430;2022-07-29T00:46:40;2.47;;;1.40;;
51618;SDS011;38518;53.164;5.430;2022-07-29T00:49:06;3.50;;;1.70;;
51618;SDS011;38518;53.164;5.430;2022-07-29T00:51:33;3.30;;;1.38;;
51618;SDS011;38518;53.164;5.430;2022-07-29T00:54:01;2.63;;;1.40;;
51618;SDS011;38518;53.164;5.430;2022-07-29T00:56:29;3.50;;;1.60;;
51618;SDS011;38518;53.164;5.430;2022-07-29T00:58:56;2.55;;;1.60;;
51618;SDS011;38518;53.164;5.430;2022-07-29T01:01:23;2.90;;;1.48;;
51618;SDS011;38518;53.164;5.430;2022-07-29T01:03:48;2.33;;;1.48;;
51618;SDS011;38518;53.164;5.430;2022-07-29T01:06:15;2.03;;;1.40;;
51618;SDS011;38518;53.164;5.430;2022-07-29T01:08:42;2.25;;;1.52;;
51618;SDS011;38518;53.164;5.430;2022-07-29T01:11:09;2.35;;;1.45;;
51618;SDS011;38518;53.164;5.430;2022-07-29T01:13:35;2.38;;;2.17;;
51618;SDS011;38518;53.164;5.430;2022-07-29T01:16:13;3.95;;;1.70;;
51618;SDS011;38518;53.164;5.430;2022-07-29T01:18:50;3.25;;;1.80;;
51618;SDS011;38518;53.164;5.430;2022-07-29T01:26:47;2.47;;;1.80;;
51618;SDS011;38518;53.164;5.430;2022-07-29T01:29:26;3.03;;;2.10;;
51618;SDS011;38518;53.164;5.430;2022-07-29T01:32:04;2.95;;;1.48;;
51618;SDS011;38518;53.164;5.430;2022-07-29T01:40:20;3.20;;;1.80;;
51618;SDS011;38518;53.164;5.430;2022-07-29T01:42:57;3.38;;;1.90;;
51618;SDS011;38518;53.164;5.430;2022-07-29T01:48:21;1.92;;;1.73;;
51618;SDS011;38518;53.164;5.430;2022-07-29T01:50:53;2.47;;;1.70;;
51618;SDS011;38518;53.164;5.430;2022-07-29T01:53:44;2.60;;;1.60;;
51618;SDS011;38518;53.164;5.430;2022-07-29T01:56:24;5.20;;;2.17;;
51618;SDS011;38518;53.164;5.430;2022-07-29T01:58:51;3.47;;;1.85;;
51618;SDS011;38518;53.164;5.430;2022-07-29T02:01:18;3.08;;;1.83;;
51618;SDS011;38518;53.164;5.430;2022-07-29T02:03:46;3.08;;;1.88;;
51618;SDS011;38518;53.164;5.430;2022-07-29T02:06:13;2.55;;;2.00;;
51618;SDS011;38518;53.164;5.430;2022-07-29T02:08:44;2.22;;;1.83;;
51618;SDS011;38518;53.164;5.430;2022-07-29T02:11:12;4.93;;;2.20;;
51618;SDS011;38518;53.164;5.430;2022-07-29T02:13:37;4.63;;;2.25;;
51618;SDS011;38518;53.164;5.430;2022-07-29T02:16:04;2.88;;;2.17;;
51618;SDS011;38518;53.164;5.430;2022-07-29T02:18:32;2.80;;;2.17;;
51618;SDS011;38518;53.164;5.430;2022-07-29T02:21:01;4.20;;;2.00;;
51618;SDS011;38518;53.164;5.430;2022-07-29T02:23:28;2.75;;;1.80;;
51618;SDS011;38518;53.164;5.430;2022-07-29T02:25:57;4.75;;;2.03;;
51618;SDS011;38518;53.164;5.430;2022-07-29T02:28:28;2.83;;;1.90;;
51618;SDS011;38518;53.164;5.430;2022-07-29T02:30:57;3.15;;;1.77;;
51618;SDS011;38518;53.164;5.430;2022-07-29T02:33:25;3.30;;;2.20;;
51618;SDS011;38518;53.164;5.430;2022-07-29T02:35:52;3.78;;;2.05;;
51618;SDS011;38518;53.164;5.430;2022-07-29T02:38:20;3.10;;;1.98;;
51618;SDS011;38518;53.164;5.430;2022-07-29T02:41:11;2.78;;;2.15;;
51618;SDS011;38518;53.164;5.430;2022-07-29T02:43:43;2.45;;;2.00;;
51618;SDS011;38518;53.164;5.430;2022-07-29T02:46:13;4.50;;;2.22;;
51618;SDS011;38518;53.164;5.430;2022-07-29T02:48:43;3.25;;;2.20;;
51618;SDS011;38518;53.164;5.430;2022-07-29T02:51:23;4.43;;;2.13;;
51618;SDS011;38518;53.164;5.430;2022-07-29T02:57:35;3.03;;;2.08;;
51618;SDS011;38518;53.164;5.430;2022-07-29T03:00:08;2.85;;;2.40;;
51618;SDS011;38518;53.164;5.430;2022-07-29T03:02:38;3.60;;;2.20;;
51618;SDS011;38518;53.164;5.430;2022-07-29T03:05:08;4.07;;;2.00;;
51618;SDS011;38518;53.164;5.430;2022-07-29T03:07:38;3.00;;;2.30;;
51618;SDS011;38518;53.164;5.430;2022-07-29T03:10:06;4.13;;;2.25;;
51618;SDS011;38518;53.164;5.430;2022-07-29T03:12:33;2.50;;;1.90;;
51618;SDS011;38518;53.164;5.430;2022-07-29T03:15:00;2.40;;;1.90;;
51618;SDS011;38518;53.164;5.430;2022-07-29T03:17:27;2.70;;;2.10;;
51618;SDS011;38518;53.164;5.430;2022-07-29T03:19:53;5.75;;;2.33;;
51618;SDS011;38518;53.164;5.430;2022-07-29T03:22:19;2.30;;;2.00;;
51618;SDS011;38518;53.164;5.430;2022-07-29T03:24:45;4.57;;;2.22;;
51618;SDS011;38518;53.164;5.430;2022-07-29T03:27:11;3.38;;;1.90;;
51618;SDS011;38518;53.164;5.430;2022-07-29T03:29:37;5.20;;;2.20;;
51618;SDS011;38518;53.164;5.430;2022-07-29T03:32:03;2.85;;;2.10;;
51618;SDS011;38518;53.164;5.430;2022-07-29T03:34:30;2.50;;;2.05;;
51618;SDS011;38518;53.164;5.430;2022-07-29T03:36:56;2.40;;;2.00;;
51618;SDS011;38518;53.164;5.430;2022-07-29T03:39:23;2.70;;;1.95;;
51618;SDS011;38518;53.164;5.430;2022-07-29T03:41:53;4.07;;;2.10;;
51618;SDS011;38518;53.164;5.430;2022-07-29T03:44:21;4.60;;;1.90;;
51618;SDS011;38518;53.164;5.430;2022-07-29T03:46:49;3.50;;;1.92;;
51618;SDS011;38518;53.164;5.430;2022-07-29T03:49:17;4.05;;;1.70;;
51618;SDS011;38518;53.164;5.430;2022-07-29T03:51:44;4.45;;;2.08;;
51618;SDS011;38518;53.164;5.430;2022-07-29T03:54:11;3.35;;;2.10;;
51618;SDS011;38518;53.164;5.430;2022-07-29T03:56:38;3.30;;;2.20;;
51618;SDS011;38518;53.164;5.430;2022-07-29T03:59:07;4.93;;;2.03;;
51618;SDS011;38518;53.164;5.430;2022-07-29T04:01:33;3.45;;;2.05;;
51618;SDS011;38518;53.164;5.430;2022-07-29T04:04:00;4.32;;;2.13;;
51618;SDS011;38518;53.164;5.430;2022-07-29T04:06:27;2.95;;;2.08;;
51618;SDS011;38518;53.164;5.430;2022-07-29T04:08:53;3.58;;;2.30;;
51618;SDS011;38518;53.164;5.430;2022-07-29T04:11:19;4.43;;;2.25;;
51618;SDS011;38518;53.164;5.430;2022-07-29T04:13:45;4.07;;;2.08;;
51618;SDS011;38518;53.164;5.430;2022-07-29T04:16:10;3.90;;;2.20;;
51618;SDS011;38518;53.164;5.430;2022-07-29T04:18:36;4.03;;;2.00;;
51618;SDS011;38518;53.164;5.430;2022-07-29T04:21:02;3.70;;;2.15;;
51618;SDS011;38518;53.164;5.430;2022-07-29T04:23:29;3.85;;;2.10;;
51618;SDS011;38518;53.164;5.430;2022-07-29T04:25:58;2.92;;;2.10;;
51618;SDS011;38518;53.164;5.430;2022-07-29T04:28:26;5.20;;;2.22;;
51618;SDS011;38518;53.164;5.430;2022-07-29T04:30:51;3.67;;;2.20;;
51618;SDS011;38518;53.164;5.430;2022-07-29T04:33:17;3.25;;;2.10;;
51618;SDS011;38518;53.164;5.430;2022-07-29T04:35:43;2.50;;;2.00;;
51618;SDS011;38518;53.164;5.430;2022-07-29T04:38:09;2.65;;;1.95;;
51618;SDS011;38518;53.164;5.430;2022-07-29T04:40:34;4.15;;;1.90;;
51618;SDS011;38518;53.164;5.430;2022-07-29T04:43:00;6.10;;;2.40;;
51618;SDS011;38518;53.164;5.430;2022-07-29T04:45:27;2.95;;;1.92;;
51618;SDS011;38518;53.164;5.430;2022-07-29T04:47:53;2.90;;;1.80;;
51618;SDS011;38518;53.164;5.430;2022-07-29T04:50:19;4.65;;;1.92;;
51618;SDS011;38518;53.164;5.430;2022-07-29T04:52:45;2.53;;;1.92;;
51618;SDS011;38518;53.164;5.430;2022-07-29T04:55:11;2.88;;;1.80;;
51618;SDS011;38518;53.164;5.430;2022-07-29T04:57:36;3.03;;;1.75;;
51618;SDS011;38518;53.164;5.430;2022-07-29T05:00:03;5.80;;;2.10;;
51618;SDS011;38518;53.164;5.430;2022-07-29T05:02:30;4.10;;;2.00;;
51618;SDS011;38518;53.164;5.430;2022-07-29T05:04:56;3.67;;;2.10;;
51618;SDS011;38518;53.164;5.430;2022-07-29T05:07:22;3.53;;;1.90;;
51618;SDS011;38518;53.164;5.430;2022-07-29T05:09:48;3.15;;;1.70;;
51618;SDS011;38518;53.164;5.430;2022-07-29T05:12:14;5.10;;;1.50;;
51618;SDS011;38518;53.164;5.430;2022-07-29T05:14:39;4.03;;;2.00;;
51618;SDS011;38518;53.164;5.430;2022-07-29T05:17:05;3.20;;;1.70;;
51618;SDS011;38518;53.164;5.430;2022-07-29T05:19:31;2.80;;;1.60;;
51618;SDS011;38518;53.164;5.430;2022-07-29T05:21:57;3.35;;;1.73;;
51618;SDS011;38518;53.164;5.430;2022-07-29T05:24:22;3.17;;;1.80;;
51618;SDS011;38518;53.164;5.430;2022-07-29T05:26:48;1.98;;;1.50;;
51618;SDS011;38518;53.164;5.430;2022-07-29T05:29:14;3.67;;;1.80;;
51618;SDS011;38518;53.164;5.430;2022-07-29T05:31:40;2.45;;;1.50;;
51618;SDS011;38518;53.164;5.430;2022-07-29T05:34:06;3.45;;;1.83;;
51618;SDS011;38518;53.164;5.430;2022-07-29T05:36:31;4.47;;;2.08;;
51618;SDS011;38518;53.164;5.430;2022-07-29T05:38:57;4.03;;;1.63;;
51618;SDS011;38518;53.164;5.430;2022-07-29T05:41:23;5.07;;;2.15;;
51618;SDS011;38518;53.164;5.430;2022-07-29T05:43:48;3.53;;;1.70;;
51618;SDS011;38518;53.164;5.430;2022-07-29T05:46:14;3.40;;;1.75;;
51618;SDS011;38518;53.164;5.430;2022-07-29T05:48:40;6.40;;;1.90;;
51618;SDS011;38518;53.164;5.430;2022-07-29T05:51:06;4.88;;;2.00;;
51618;SDS011;38518;53.164;5.430;2022-07-29T05:53:32;3.50;;;1.70;;
51618;SDS011;38518;53.164;5.430;2022-07-29T05:55:57;2.83;;;1.60;;
51618;SDS011;38518;53.164;5.430;2022-07-29T05:58:23;3.50;;;1.67;;
51618;SDS011;38518;53.164;5.430;2022-07-29T06:00:49;2.28;;;1.45;;
51618;SDS011;38518;53.164;5.430;2022-07-29T06:03:14;3.70;;;1.77;;
51618;SDS011;38518;53.164;5.430;2022-07-29T06:05:40;4.28;;;1.80;;
51618;SDS011;38518;53.164;5.430;2022-07-29T06:08:06;2.67;;;1.52;;
51618;SDS011;38518;53.164;5.430;2022-07-29T06:10:32;2.15;;;1.70;;
51618;SDS011;38518;53.164;5.430;2022-07-29T06:13:00;3.53;;;1.40;;
51618;SDS011;38518;53.164;5.430;2022-07-29T06:15:25;3.72;;;1.60;;
51618;SDS011;38518;53.164;5.430;2022-07-29T06:17:51;6.53;;;1.50;;
51618;SDS011;38518;53.164;5.430;2022-07-29T06:20:17;3.03;;;1.60;;
51618;SDS011;38518;53.164;5.430;2022-07-29T06:22:43;2.35;;;1.30;;
51618;SDS011;38518;53.164;5.430;2022-07-29T06:25:09;3.95;;;1.60;;
51618;SDS011;38518;53.164;5.430;2022-07-29T06:27:35;3.25;;;1.83;;
51618;SDS011;38518;53.164;5.430;2022-07-29T06:30:01;2.65;;;1.50;;
51618;SDS011;38518;53.164;5.430;2022-07-29T06:32:27;2.58;;;1.48;;
51618;SDS011;38518;53.164;5.430;2022-07-29T06:34:53;3.38;;;1.50;;
51618;SDS011;38518;53.164;5.430;2022-07-29T06:37:19;2.58;;;1.40;;
51618;SDS011;38518;53.164;5.430;2022-07-29T06:39:44;2.25;;;1.60;;
51618;SDS011;38518;53.164;5.430;2022-07-29T06:42:10;4.63;;;1.75;;
51618;SDS011;38518;53.164;5.430;2022-07-29T06:44:36;3.78;;;1.67;;
51618;SDS011;38518;53.164;5.430;2022-07-29T06:47:02;5.70;;;1.60;;
51618;SDS011;38518;53.164;5.430;2022-07-29T06:49:28;3.60;;;1.65;;
51618;SDS011;38518;53.164;5.430;2022-07-29T06:51:54;3.17;;;1.40;;
51618;SDS011;38518;53.164;5.430;2022-07-29T06:54:20;3.33;;;1.52;;
51618;SDS011;38518;53.164;5.430;2022-07-29T06:56:46;2.17;;;1.40;;
51618;SDS011;38518;53.164;5.430;2022-07-29T06:59:12;3.72;;;1.70;;
51618;SDS011;38518;53.164;5.430;2022-07-29T07:01:39;5.93;;;1.70;;
51618;SDS011;38518;53.164;5.430;2022-07-29T07:04:06;3.22;;;1.33;;
51618;SDS011;38518;53.164;5.430;2022-07-29T07:06:33;3.53;;;1.67;;
51618;SDS011;38518;53.164;5.430;2022-07-29T07:09:00;3.38;;;1.55;;
51618;SDS011;38518;53.164;5.430;2022-07-29T07:11:26;3.95;;;1.90;;
51618;SDS011;38518;53.164;5.430;2022-07-29T07:13:52;5.28;;;1.40;;
51618;SDS011;38518;53.164;5.430;2022-07-29T07:16:18;4.38;;;1.77;;
51618;SDS011;38518;53.164;5.430;2022-07-29T07:18:44;2.38;;;1.58;;
51618;SDS011;38518;53.164;5.430;2022-07-29T07:21:10;3.05;;;1.70;;
51618;SDS011;38518;53.164;5.430;2022-07-29T07:23:36;3.35;;;1.77;;
51618;SDS011;38518;53.164;5.430;2022-07-29T07:26:02;2.78;;;1.50;;
51618;SDS011;38518;53.164;5.430;2022-07-29T07:28:30;4.65;;;1.70;;
51618;SDS011;38518;53.164;5.430;2022-07-29T07:30:56;2.35;;;1.48;;
51618;SDS011;38518;53.164;5.430;2022-07-29T07:33:22;3.38;;;1.63;;
51618;SDS011;38518;53.164;5.430;2022-07-29T07:35:48;4.03;;;2.30;;
51618;SDS011;38518;53.164;5.430;2022-07-29T07:38:13;3.88;;;2.00;;
51618;SDS011;38518;53.164;5.430;2022-07-29T07:40:39;1.92;;;1.33;;
51618;SDS011;38518;53.164;5.430;2022-07-29T07:43:05;3.65;;;1.70;;
51618;SDS011;38518;53.164;5.430;2022-07-29T07:45:31;5.15;;;1.90;;
51618;SDS011;38518;53.164;5.430;2022-07-29T07:48:02;3.45;;;1.98;;
51618;SDS011;38518;53.164;5.430;2022-07-29T07:50:28;1.85;;;1.38;;
51618;SDS011;38518;53.164;5.430;2022-07-29T07:52:54;3.13;;;1.60;;
51618;SDS011;38518;53.164;5.430;2022-07-29T07:55:22;2.35;;;1.50;;
51618;SDS011;38518;53.164;5.430;2022-07-29T07:57:49;4.25;;;1.70;;
51618;SDS011;38518;53.164;5.430;2022-07-29T08:00:15;3.33;;;1.60;;
51618;SDS011;38518;53.164;5.430;2022-07-29T08:02:42;4.22;;;1.60;;
51618;SDS011;38518;53.164;5.430;2022-07-29T08:05:08;3.50;;;2.25;;
51618;SDS011;38518;53.164;5.430;2022-07-29T08:07:34;4.93;;;1.80;;
51618;SDS011;38518;53.164;5.430;2022-07-29T08:10:00;4.43;;;2.08;;
51618;SDS011;38518;53.164;5.430;2022-07-29T08:12:26;4.03;;;1.80;;
51618;SDS011;38518;53.164;5.430;2022-07-29T08:14:52;2.70;;;1.77;;
51618;SDS011;38518;53.164;5.430;2022-07-29T08:17:18;2.10;;;1.70;;
51618;SDS011;38518;53.164;5.430;2022-07-29T08:19:43;4.88;;;1.80;;
51618;SDS011;38518;53.164;5.430;2022-07-29T08:22:09;4.22;;;1.60;;
51618;SDS011;38518;53.164;5.430;2022-07-29T08:24:35;5.00;;;1.90;;
51618;SDS011;38518;53.164;5.430;2022-07-29T08:27:12;2.75;;;1.67;;
51618;SDS011;38518;53.164;5.430;2022-07-29T08:29:39;4.95;;;1.80;;
51618;SDS011;38518;53.164;5.430;2022-07-29T08:32:05;3.03;;;1.80;;
51618;SDS011;38518;53.164;5.430;2022-07-29T08:34:31;5.10;;;1.88;;
51618;SDS011;38518;53.164;5.430;2022-07-29T08:36:57;3.40;;;1.60;;
51618;SDS011;38518;53.164;5.430;2022-07-29T08:39:23;3.38;;;1.58;;
51618;SDS011;38518;53.164;5.430;2022-07-29T08:41:50;3.17;;;1.50;;
51618;SDS011;38518;53.164;5.430;2022-07-29T08:44:19;3.00;;;1.80;;
51618;SDS011;38518;53.164;5.430;2022-07-29T08:46:46;4.15;;;1.60;;
51618;SDS011;38518;53.164;5.430;2022-07-29T08:49:12;3.83;;;1.70;;
51618;SDS011;38518;53.164;5.430;2022-07-29T08:51:39;2.75;;;1.80;;
51618;SDS011;38518;53.164;5.430;2022-07-29T08:54:06;3.45;;;1.90;;
51618;SDS011;38518;53.164;5.430;2022-07-29T08:56:34;2.85;;;1.73;;
51618;SDS011;38518;53.164;5.430;2022-07-29T08:59:02;1.98;;;1.65;;
51618;SDS011;38518;53.164;5.430;2022-07-29T09:01:30;4.03;;;2.08;;
51618;SDS011;38518;53.164;5.430;2022-07-29T09:03:59;2.85;;;1.60;;
51618;SDS011;38518;53.164;5.430;2022-07-29T09:06:29;3.88;;;2.00;;
51618;SDS011;38518;53.164;5.430;2022-07-29T09:08:59;3.10;;;1.63;;
51618;SDS011;38518;53.164;5.430;2022-07-29T09:11:26;4.03;;;1.83;;
51618;SDS011;38518;53.164;5.430;2022-07-29T09:13:52;4.13;;;2.03;;
51618;SDS011;38518;53.164;5.430;2022-07-29T09:16:18;3.63;;;1.92;;
51618;SDS011;38518;53.164;5.430;2022-07-29T09:18:44;5.40;;;1.88;;
51618;SDS011;38518;53.164;5.430;2022-07-29T09:21:11;2.88;;;1.70;;
51618;SDS011;38518;53.164;5.430;2022-07-29T09:24:10;3.25;;;1.83;;
51618;SDS011;38518;53.164;5.430;2022-07-29T09:26:44;3.95;;;1.90;;
51618;SDS011;38518;53.164;5.430;2022-07-29T09:29:11;4.35;;;2.00;;
51618;SDS011;38518;53.164;5.430;2022-07-29T09:31:40;5.70;;;1.83;;
51618;SDS011;38518;53.164;5.430;2022-07-29T09:34:07;2.08;;;1.50;;
51618;SDS011;38518;53.164;5.430;2022-07-29T09:36:38;4.60;;;2.08;;
51618;SDS011;38518;53.164;5.430;2022-07-29T09:39:11;3.40;;;2.00;;
51618;SDS011;38518;53.164;5.430;2022-07-29T09:41:51;3.70;;;1.90;;
51618;SDS011;38518;53.164;5.430;2022-07-29T09:44:19;3.00;;;1.75;;
51618;SDS011;38518;53.164;5.430;2022-07-29T09:46:55;6.32;;;2.05;;
51618;SDS011;38518;53.164;5.430;2022-07-29T09:49:22;6.28;;;2.22;;
51618;SDS011;38518;53.164;5.430;2022-07-29T09:51:58;5.07;;;2.10;;
51618;SDS011;38518;53.164;5.430;2022-07-29T09:54:30;3.47;;;1.67;;
51618;SDS011;38518;53.164;5.430;2022-07-29T09:57:02;6.07;;;1.80;;
51618;SDS011;38518;53.164;5.430;2022-07-29T09:59:29;6.63;;;2.00;;
51618;SDS011;38518;53.164;5.430;2022-07-29T10:01:56;4.30;;;1.85;;
51618;SDS011;38518;53.164;5.430;2022-07-29T10:04:21;4.65;;;2.40;;
51618;SDS011;38518;53.164;5.430;2022-07-29T10:06:57;4.07;;;2.20;;
51618;SDS011;38518;53.164;5.430;2022-07-29T10:09:25;5.13;;;2.08;;
51618;SDS011;38518;53.164;5.430;2022-07-29T10:12:07;4.50;;;2.08;;
51618;SDS011;38518;53.164;5.430;2022-07-29T10:14:36;4.18;;;2.20;;
51618;SDS011;38518;53.164;5.430;2022-07-29T10:17:04;5.78;;;2.17;;
51618;SDS011;38518;53.164;5.430;2022-07-29T10:19:31;4.93;;;1.90;;
51618;SDS011;38518;53.164;5.430;2022-07-29T10:21:58;4.68;;;2.60;;
51618;SDS011;38518;53.164;5.430;2022-07-29T10:24:26;4.10;;;2.03;;
51618;SDS011;38518;53.164;5.430;2022-07-29T10:26:56;5.78;;;1.95;;
51618;SDS011;38518;53.164;5.430;2022-07-29T10:29:23;4.10;;;1.90;;
51618;SDS011;38518;53.164;5.430;2022-07-29T10:43:32;3.92;;;2.00;;
51618;SDS011;38518;53.164;5.430;2022-07-29T10:46:01;4.55;;;1.90;;
51618;SDS011;38518;53.164;5.430;2022-07-29T10:48:28;5.15;;;2.63;;
51618;SDS011;38518;53.164;5.430;2022-07-29T10:53:21;5.38;;;2.58;;
51618;SDS011;38518;53.164;5.430;2022-07-29T10:55:47;3.13;;;2.13;;
51618;SDS011;38518;53.164;5.430;2022-07-29T10:58:19;8.75;;;2.70;;
51618;SDS011;38518;53.164;5.430;2022-07-29T11:00:48;4.35;;;2.25;;
51618;SDS011;38518;53.164;5.430;2022-07-29T11:04:01;5.32;;;2.55;;
51618;SDS011;38518;53.164;5.430;2022-07-29T11:06:14;5.25;;;2.47;;
51618;SDS011;38518;53.164;5.430;2022-07-29T11:08:40;5.20;;;2.72;;
51618;SDS011;38518;53.164;5.430;2022-07-29T11:13:45;5.40;;;2.40;;
51618;SDS011;38518;53.164;5.430;2022-07-29T11:16:12;9.57;;;3.08;;
51618;SDS011;38518;53.164;5.430;2022-07-29T11:21:36;5.97;;;2.75;;
51618;SDS011;38518;53.164;5.430;2022-07-29T11:24:13;6.70;;;2.92;;
51618;SDS011;38518;53.164;5.430;2022-07-29T11:26:41;4.00;;;2.80;;
51618;SDS011;38518;53.164;5.430;2022-07-29T11:31:40;5.72;;;2.47;;
51618;SDS011;38518;53.164;5.430;2022-07-29T11:39:38;5.10;;;3.15;;
51618;SDS011;38518;53.164;5.430;2022-07-29T11:44:56;4.30;;;2.90;;
51618;SDS011;38518;53.164;5.430;2022-07-29T11:47:22;5.43;;;3.03;;
51618;SDS011;38518;53.164;5.430;2022-07-29T11:49:48;4.47;;;2.70;;
51618;SDS011;38518;53.164;5.430;2022-07-29T11:52:16;7.20;;;3.03;;
51618;SDS011;38518;53.164;5.430;2022-07-29T11:54:43;5.10;;;2.80;;
51618;SDS011;38518;53.164;5.430;2022-07-29T11:57:09;5.47;;;2.85;;
51618;SDS011;38518;53.164;5.430;2022-07-29T11:59:42;6.72;;;3.20;;
51618;SDS011;38518;53.164;5.430;2022-07-29T12:02:10;9.93;;;2.63;;
51618;SDS011;38518;53.164;5.430;2022-07-29T12:04:51;6.75;;;2.70;;
51618;SDS011;38518;53.164;5.430;2022-07-29T12:07:18;7.15;;;2.58;;
51618;SDS011;38518;53.164;5.430;2022-07-29T12:09:51;4.97;;;2.53;;
51618;SDS011;38518;53.164;5.430;2022-07-29T12:12:21;4.43;;;2.70;;
51618;SDS011;38518;53.164;5.430;2022-07-29T12:14:47;7.63;;;2.50;;
51618;SDS011;38518;53.164;5.430;2022-07-29T12:17:32;5.28;;;2.75;;
51618;SDS011;38518;53.164;5.430;2022-07-29T12:19:59;7.22;;;2.83;;
51618;SDS011;38518;53.164;5.430;2022-07-29T12:22:31;4.60;;;3.00;;
51618;SDS011;38518;53.164;5.430;2022-07-29T12:25:10;4.72;;;2.60;;
51618;SDS011;38518;53.164;5.430;2022-07-29T12:27:39;6.75;;;3.00;;
51618;SDS011;38518;53.164;5.430;2022-07-29T12:30:06;8.85;;;3.03;;
51618;SDS011;38518;53.164;5.430;2022-07-29T12:32:35;5.75;;;3.10;;
51618;SDS011;38518;53.164;5.430;2022-07-29T12:35:13;6.80;;;3.05;;
51618;SDS011;38518;53.164;5.430;2022-07-29T12:37:41;5.50;;;3.00;;
51618;SDS011;38518;53.164;5.430;2022-07-29T12:40:09;4.18;;;2.50;;
51618;SDS011;38518;53.164;5.430;2022-07-29T12:42:36;6.10;;;2.58;;
51618;SDS011;38518;53.164;5.430;2022-07-29T12:45:03;6.50;;;2.97;;
51618;SDS011;38518;53.164;5.430;2022-07-29T12:47:29;6.72;;;2.38;;
51618;SDS011;38518;53.164;5.430;2022-07-29T12:50:09;4.88;;;2.85;;
51618;SDS011;38518;53.164;5.430;2022-07-29T12:52:43;4.45;;;2.75;;
51618;SDS011;38518;53.164;5.430;2022-07-29T12:55:10;5.03;;;2.50;;
51618;SDS011;38518;53.164;5.430;2022-07-29T13:00:12;3.80;;;2.33;;
51618;SDS011;38518;53.164;5.430;2022-07-29T13:02:39;6.05;;;2.63;;
51618;SDS011;38518;53.164;5.430;2022-07-29T13:05:07;3.75;;;2.35;;
51618;SDS011;38518;53.164;5.430;2022-07-29T13:07:35;7.30;;;2.53;;
51618;SDS011;38518;53.164;5.430;2022-07-29T13:15:30;4.63;;;2.30;;
51618;SDS011;38518;53.164;5.430;2022-07-29T13:17:57;5.18;;;2.20;;
51618;SDS011;38518;53.164;5.430;2022-07-29T13:20:23;5.43;;;2.88;;
51618;SDS011;38518;53.164;5.430;2022-07-29T13:22:52;3.50;;;2.30;;
51618;SDS011;38518;53.164;5.430;2022-07-29T13:25:28;4.35;;;2.33;;
51618;SDS011;38518;53.164;5.430;2022-07-29T13:27:56;3.92;;;2.10;;
51618;SDS011;38518;53.164;5.430;2022-07-29T13:30:23;4.30;;;2.40;;
51618;SDS011;38518;53.164;5.430;2022-07-29T13:32:49;3.30;;;2.33;;
51618;SDS011;38518;53.164;5.430;2022-07-29T13:35:17;5.60;;;2.28;;
51618;SDS011;38518;53.164;5.430;2022-07-29T13:37:45;6.40;;;2.42;;
51618;SDS011;38518;53.164;5.430;2022-07-29T13:40:11;5.47;;;2.58;;
51618;SDS011;38518;53.164;5.430;2022-07-29T13:42:37;3.75;;;2.08;;
51618;SDS011;38518;53.164;5.430;2022-07-29T13:45:04;6.25;;;2.22;;
51618;SDS011;38518;53.164;5.430;2022-07-29T13:47:31;6.35;;;2.65;;
51618;SDS011;38518;53.164;5.430;2022-07-29T13:49:57;7.30;;;2.58;;
51618;SDS011;38518;53.164;5.430;2022-07-29T13:52:23;7.05;;;2.28;;
51618;SDS011;38518;53.164;5.430;2022-07-29T13:54:49;5.88;;;2.30;;
51618;SDS011;38518;53.164;5.430;2022-07-29T13:57:15;5.70;;;2.40;;
51618;SDS011;38518;53.164;5.430;2022-07-29T13:59:41;6.93;;;2.50;;
51618;SDS011;38518;53.164;5.430;2022-07-29T14:02:09;5.95;;;2.45;;
51618;SDS011;38518;53.164;5.430;2022-07-29T14:04:35;8.70;;;3.20;;
51618;SDS011;38518;53.164;5.430;2022-07-29T14:07:01;5.68;;;2.83;;
51618;SDS011;38518;53.164;5.430;2022-07-29T14:09:27;6.50;;;2.60;;
51618;SDS011;38518;53.164;5.430;2022-07-29T14:11:53;6.00;;;2.30;;
51618;SDS011;38518;53.164;5.430;2022-07-29T14:14:19;5.88;;;2.40;;
51618;SDS011;38518;53.164;5.430;2022-07-29T14:16:45;6.03;;;2.47;;
51618;SDS011;38518;53.164;5.430;2022-07-29T14:19:11;5.63;;;2.47;;
51618;SDS011;38518;53.164;5.430;2022-07-29T14:21:37;6.57;;;2.42;;
51618;SDS011;38518;53.164;5.430;2022-07-29T14:24:04;5.95;;;2.50;;
51618;SDS011;38518;53.164;5.430;2022-07-29T14:26:30;4.60;;;2.35;;
51618;SDS011;38518;53.164;5.430;2022-07-29T14:28:56;5.32;;;2.50;;
51618;SDS011;38518;53.164;5.430;2022-07-29T14:31:21;5.03;;;2.42;;
51618;SDS011;38518;53.164;5.430;2022-07-29T14:33:47;4.53;;;2.75;;
51618;SDS011;38518;53.164;5.430;2022-07-29T14:36:13;7.10;;;2.22;;
51618;SDS011;38518;53.164;5.430;2022-07-29T14:38:39;5.60;;;2.50;;
51618;SDS011;38518;53.164;5.430;2022-07-29T14:41:05;6.15;;;2.53;;
51618;SDS011;38518;53.164;5.430;2022-07-29T14:43:33;4.63;;;2.63;;
51618;SDS011;38518;53.164;5.430;2022-07-29T14:45:59;5.97;;;2.60;;
51618;SDS011;38518;53.164;5.430;2022-07-29T14:48:25;5.28;;;2.30;;
51618;SDS011;38518;53.164;5.430;2022-07-29T14:50:51;4.07;;;2.80;;
51618;SDS011;38518;53.164;5.430;2022-07-29T14:53:16;5.68;;;2.88;;
51618;SDS011;38518;53.164;5.430;2022-07-29T14:55:42;5.65;;;3.00;;
51618;SDS011;38518;53.164;5.430;2022-07-29T14:58:08;6.47;;;2.88;;
51618;SDS011;38518;53.164;5.430;2022-07-29T15:00:34;6.07;;;2.53;;
51618;SDS011;38518;53.164;5.430;2022-07-29T15:03:01;6.28;;;2.85;;
51618;SDS011;38518;53.164;5.430;2022-07-29T15:05:28;7.43;;;2.97;;
51618;SDS011;38518;53.164;5.430;2022-07-29T15:07:54;5.45;;;2.70;;
51618;SDS011;38518;53.164;5.430;2022-07-29T15:10:20;6.43;;;3.13;;
51618;SDS011;38518;53.164;5.430;2022-07-29T15:12:46;3.80;;;2.33;;
51618;SDS011;38518;53.164;5.430;2022-07-29T15:15:12;5.82;;;2.55;;
51618;SDS011;38518;53.164;5.430;2022-07-29T15:17:38;5.65;;;3.00;;
51618;SDS011;38518;53.164;5.430;2022-07-29T15:20:04;5.97;;;3.13;;
51618;SDS011;38518;53.164;5.430;2022-07-29T15:22:30;5.30;;;2.50;;
51618;SDS011;38518;53.164;5.430;2022-07-29T15:24:56;6.53;;;2.80;;
51618;SDS011;38518;53.164;5.430;2022-07-29T15:27:21;5.78;;;2.45;;
51618;SDS011;38518;53.164;5.430;2022-07-29T15:29:47;5.32;;;2.58;;
51618;SDS011;38518;53.164;5.430;2022-07-29T15:32:13;6.40;;;2.70;;
51618;SDS011;38518;53.164;5.430;2022-07-29T15:34:39;5.50;;;3.05;;
51618;SDS011;38518;53.164;5.430;2022-07-29T15:37:05;5.40;;;2.90;;
51618;SDS011;38518;53.164;5.430;2022-07-29T15:39:31;5.35;;;2.70;;
51618;SDS011;38518;53.164;5.430;2022-07-29T15:41:58;5.25;;;2.95;;
51618;SDS011;38518;53.164;5.430;2022-07-29T15:44:25;6.57;;;2.80;;
51618;SDS011;38518;53.164;5.430;2022-07-29T15:46:51;9.02;;;3.40;;